Flight Track Log - Related Links

Times and Time Zones

All times are in EDT time to prevent confusion due to time zone crossing. See the UAL706 flight status page for this flight to view local times or setup timezone preferences in your user account.

Time Position Orientation Groundspeed Altitude Reporting Facility
EDT Latitude Longitude Course Direction KTS MPH feet Rate Location/Type
Fri 02:47:15 AM 20.9215 -156.4067 37° Northeast  Level FlightAware Approximate
Fri 02:48:15 AM 21.0142 -156.3183 223° Southwest  Level FlightAware Approximate
Fri 02:49:25 AM 20.9500 -156.3833 35° Northeast 210 242 3,100  Level Honolulu Center
Fri 02:50:25 AM 21.0167 -156.3333 43° Northeast 250 288 5,600 2,926 Climbing Honolulu Center
Fri 02:51:26 AM 21.0667 -156.2833 35° Northeast 270 311 9,000 3,074 Climbing Honolulu Center
Fri 02:52:26 AM 21.1333 -156.2333 43° Northeast 280 322 11,800 2,050 Climbing Honolulu Center
Fri 02:53:26 AM 21.2000 -156.1667 49° Northeast 330 380 13,100 1,686 Climbing Honolulu Center
Fri 02:54:27 AM 21.2667 -156.0833 43° Northeast 370 426 15,200 2,182 Climbing Honolulu Center
Fri 02:55:27 AM 21.3500 -156.0000 49° Northeast 390 449 17,500 2,132 Climbing Honolulu Center
Fri 02:56:28 AM 21.4167 -155.9167 43° Northeast 410 472 19,500 1,983 Climbing Honolulu Center
Fri 02:57:28 AM 21.5000 -155.8333 43° Northeast 420 483 21,500 1,900 Climbing Honolulu Center
Fri 02:58:28 AM 21.5833 -155.7500 43° Northeast 440 506 23,300 1,800 Climbing Honolulu Center
Fri 02:59:28 AM 21.6833 -155.6500 48° Northeast 440 506 25,100 1,750 Climbing Honolulu Center
Fri 03:00:28 AM 21.7667 -155.5500 48° Northeast 450 518 26,800 1,488 Climbing Honolulu Center
Fri 03:01:29 AM 21.8500 -155.4500 38° Northeast 460 529 28,100 1,388 Climbing Honolulu Center
Fri 03:02:29 AM 21.9500 -155.3667 48° Northeast 460 529 29,600 1,636 Climbing Honolulu Center
Fri 03:03:30 AM 22.0333 -155.2667 43° Northeast 460 529 31,400 1,686 Climbing Honolulu Center
Fri 03:04:30 AM 22.1333 -155.1667 48° Northeast 450 518 33,000 1,400 Climbing Honolulu Center
Fri 03:05:30 AM 22.2167 -155.0667 48° Northeast 450 518 34,200 1,140 Climbing Honolulu Center
Fri 03:06:31 AM 22.3000 -154.9667 38° Northeast 440 506 35,300 893 Climbing Honolulu Center
Fri 03:07:31 AM 22.4000 -154.8833 48° Northeast 450 518 36,000 350 Climbing Honolulu Center
Fri 03:08:31 AM 22.4833 -154.7833 48° Northeast 450 518 36,000  Level Honolulu Center
Fri 03:09:32 AM 22.5667 -154.6833 43° Northeast 450 518 36,000  Level Honolulu Center
Fri 03:10:32 AM 22.6667 -154.5833 43° Northeast 440 506 36,000  Level Honolulu Center
Fri 03:11:32 AM 22.7500 -154.5000 48° Northeast 440 506 36,000  Level Honolulu Center
Fri 03:12:33 AM 22.8333 -154.4000 43° Northeast 440 506 36,000  Level Honolulu Center
Fri 03:13:33 AM 22.9167 -154.3167 45° Northeast 440 506 36,000  Level Honolulu Center
Fri 03:24:14 AM 23.7833 -153.3667 57° Northeast 443 510 36,000  Level Oakland Oceanic (ODAPS)
Fri 04:17:14 AM 27.2333 -147.2167 59° Northeast 470 541 36,000  Level Oakland Oceanic (ODAPS)
Fri 05:08:55 AM 30.4000 -140.7000 63° Northeast 500 575 36,000  Level Oakland Oceanic (ODAPS)
Fri 05:56:43 AM 33.2833 -133.6167 66° East 534 615 36,000  Level Oakland Oceanic (ODAPS)
Fri 06:38:21 AM 35.6619 -126.3072 70° East 502 578 36,000  Level Oakland Center
Fri 06:39:21 AM 35.7136 -126.1292 69° East 527 606 36,000 -50 Level Oakland Center
Fri 06:40:21 AM 35.7694 -125.9511 65° Northeast 542 624 35,900  Descending Oakland Center
Fri 06:41:21 AM 35.8350 -125.7761 60° Northeast 547 629 36,000 50 Climbing Oakland Center
Fri 06:42:21 AM 35.9106 -125.6114 61° Northeast 547 629 36,000  Level Oakland Center
Fri 06:43:21 AM 35.9858 -125.4442 60° Northeast 552 635 36,000  Level Oakland Center
Fri 06:44:21 AM 36.0631 -125.2764 60° Northeast 552 635 36,000 -50 Level Oakland Center
Fri 06:45:21 AM 36.1400 -125.1083 60° Northeast 552 635 35,900 -50 Descending Oakland Center
Fri 06:46:21 AM 36.2169 -124.9400 59° Northeast 552 635 35,900  Level Oakland Center
Fri 06:47:21 AM 36.2975 -124.7717 60° Northeast 552 635 35,900 50 Level Oakland Center
Fri 06:48:21 AM 36.3736 -124.6050 61° Northeast 552 635 36,000  Climbing Oakland Center
Fri 06:49:21 AM 36.4478 -124.4356 60° Northeast 552 635 35,900 -50 Descending Oakland Center
Fri 06:50:21 AM 36.5256 -124.2686 62° Northeast 552 635 35,900 -700 Level Oakland Center
Fri 06:51:21 AM 36.5989 -124.0983 60° Northeast 552 635 34,500 -1,600 Descending Oakland Center
Fri 06:52:21 AM 36.6764 -123.9281 61° Northeast 552 635 32,700 -2,100 Descending Oakland Center
Fri 06:53:21 AM 36.7514 -123.7600 62° Northeast 552 635 30,300 -2,400 Descending Oakland Center
Fri 06:54:21 AM 36.8242 -123.5914 61° Northeast 552 635 27,900 -2,400 Descending Oakland Center
Fri 06:55:21 AM 36.8967 -123.4278 61° Northeast 547 629 25,500 -2,500 Descending Oakland Center
Fri 06:56:21 AM 36.9664 -123.2714 62° Northeast 540 621 22,900 -2,500 Descending Oakland Center
Fri 06:57:21 AM 37.0319 -123.1197 62° Northeast 513 590 20,500 -2,500 Descending Oakland Center
Fri 06:58:21 AM 37.0908 -122.9783 61° Northeast 475 547 17,900 -2,350 Descending Oakland Center
Fri 06:59:21 AM 37.1494 -122.8444 62° Northeast 447 514 15,800 -2,200 Descending Oakland Center
Fri 07:00:21 AM 37.2033 -122.7181 61° Northeast 422 486 13,500 -2,250 Descending Oakland Center
Fri 07:01:21 AM 37.2553 -122.5992 61° Northeast 398 458 11,300 -1,500 Descending Oakland Center
Fri 07:02:21 AM 37.3025 -122.4906 62° Northeast 372 428 10,500 -900 Descending Oakland Center
Fri 07:03:21 AM 37.3433 -122.3919 62° Northeast 336 387 9,500 -1,250 Descending Oakland Center
Fri 07:04:21 AM 37.3819 -122.3014 62° Northeast 306 352 8,000 -1,000 Descending Oakland Center
Fri 07:05:21 AM 37.4142 -122.2261 61° Northeast 273 314 7,500 -1,150 Descending Oakland Center
Fri 07:06:21 AM 37.4439 -122.1586 17° North 238 274 5,700 -1,900 Descending Oakland Center
Fri 07:07:21 AM 37.4964 -122.1383 316° Northwest 185 213 3,700 -1,440 Descending Oakland Center
Fri 07:08:26 AM 37.5333 -122.1833 310° West 181 208 2,700 -768 Descending Northern Cal TRACON
Fri 07:09:26 AM 37.5667 -122.2333 293° West 167 192 2,100 -650 Descending Northern Cal TRACON
Fri 07:10:26 AM 37.5833 -122.2833 302° West 133 153 1,400 -700 Descending Northern Cal TRACON
Fri 07:11:26 AM 37.6000 -122.3167 302° West 123 142 700 -700 Descending Northern Cal TRACON

Login

Don't have an account? Register now (free) for customized features, flight alerts, and more!